Normand Subsea — 2CQP8 — position and weather

sailwx.info

Track history (hours):
 
Tides and Currents Weather Stations Pressure Air Temp Water Temp Dewpoint Dewpoint Depression Visibility Wind Speed Wind Dir Waves Ship Positions

Normand Subsea

Last reported at 2014-Sep-01 12:10 UTC. Time now 2014-Sep-03 07:09 UTC.
Position N 63°08' E 004°38'.

Length 113 m; draft 7.7 m.

Type: Other ship. MMSI: 235074949.

Date/timePositionNaut miles runAvg speedWind from/ knotsBaromVisibWave heightAir tempDewpointWater temp
2014-Sep-01 12:10N 63°08' E 004°38'911.4
2014-Sep-01 11:23N 63°02' E 004°24'33610.9
2014-Aug-31 04:33N 59°12' W 004°03'1010.4
2014-Aug-31 03:33N 59°04' W 004°17'1110.6
2014-Aug-31 02:33N 58°56' W 004°31'4911.4
2014-Aug-30 22:13N 58°19' W 005°33'811.7
2014-Aug-30 21:33N 58°12' W 005°41'1111.3
2014-Aug-30 20:33N 58°03' W 005°53'138 9.2
2014-Aug-30 05:33N 55°47' W 006°41'1212.1
2014-Aug-30 04:33N 55°37' W 006°29'1212.2
2014-Aug-30 03:33N 55°27' W 006°17'1111.0
2014-Aug-30 02:33N 55°22' W 006°00'1110.5
2014-Aug-30 01:33N 55°15' W 005°47'29 9.3
2014-Aug-29 22:23N 55°29' W 005°02'2010.9
2014-Aug-29 20:33N 55°49' W 004°57'1010.0
2014-Aug-29 19:33N 55°58' W 004°50'3 2.4
2014-Aug-29 18:31N 55°57' W 004°46'0 0.0
2014-Aug-29 17:31N 55°57' W 004°46'0 0.0
2014-Aug-29 16:31N 55°57' W 004°46'0 0.0
2014-Aug-29 15:31N 55°57' W 004°46'0 0.0
2014-Aug-29 14:31N 55°57' W 004°46'0 0.0
2014-Aug-29 13:31N 55°57' W 004°46'0 0.0
2014-Aug-29 12:31N 55°57' W 004°46'0 0.0
2014-Aug-29 11:31N 55°57' W 004°46'0 0.0
2014-Aug-29 10:31N 55°57' W 004°46'0 0.0
2014-Aug-29 09:31N 55°57' W 004°46'0 0.0
2014-Aug-29 08:31N 55°57' W 004°46'0 0.0
2014-Aug-29 07:31N 55°57' W 004°46'0 0.0
2014-Aug-29 06:31N 55°57' W 004°46'0 0.0
2014-Aug-29 05:31N 55°57' W 004°46'0 0.0
2014-Aug-29 04:31N 55°57' W 004°46'0 0.0
2014-Aug-29 03:31N 55°57' W 004°46'0 0.0
2014-Aug-29 02:31N 55°57' W 004°46'0 0.0
2014-Aug-29 01:31N 55°57' W 004°46'0 0.0
2014-Aug-29 00:31N 55°57' W 004°46'0 0.0
2014-Aug-28 23:31N 55°57' W 004°46'0 0.0
2014-Aug-28 22:31N 55°57' W 004°46'0 0.0
2014-Aug-28 21:31N 55°57' W 004°46'0 0.0
2014-Aug-28 20:31N 55°57' W 004°46'0 0.0
2014-Aug-28 19:31N 55°57' W 004°46'1 0.9
2014-Aug-28 18:34N 55°58' W 004°47'1010.2
2014-Aug-28 17:34N 55°49' W 004°57'1010.2
2014-Aug-28 16:34N 55°39' W 004°60'3410.3
2014-Aug-28 13:14N 55°15' W 005°42'811.4
2014-Aug-28 12:34N 55°14' W 005°56'1212.1
2014-Aug-28 11:33N 55°21' W 006°13'1313.1
2014-Aug-28 10:33N 55°24' W 006°36'1414.0
2014-Aug-28 09:33N 55°28' W 006°60'11312.6
2014-Aug-28 00:32N 54°42' W 010°01'2612.4
2014-Aug-27 22:25N 54°28' W 010°40'1011.7
2014-Aug-27 21:33N 54°23' W 010°55'6 5.8
2014-Aug-27 20:33N 54°20' W 011°03'0 0.0
2014-Aug-27 19:32N 54°20' W 011°04'0 0.0
2014-Aug-27 18:27N 54°20' W 011°04'0 0.0
2014-Aug-27 17:33N 54°20' W 011°04'0 0.0
2014-Aug-27 16:32N 54°20' W 011°04'0 0.0
2014-Aug-27 15:33N 54°20' W 011°04'0 0.1
2014-Aug-27 14:33N 54°20' W 011°03'0 0.1
2014-Aug-27 13:33N 54°20' W 011°04'0 0.0
2014-Aug-27 12:33N 54°20' W 011°03'0 0.0
2014-Aug-27 11:32N 54°20' W 011°04'0 0.0
2014-Aug-27 10:31N 54°20' W 011°04'0 0.0
2014-Aug-27 09:33N 54°20' W 011°04'0 0.0
2014-Aug-27 08:32N 54°20' W 011°04'0 0.0
2014-Aug-27 07:33N 54°20' W 011°04'0 0.0
2014-Aug-27 06:32N 54°20' W 011°04'0 0.0
2014-Aug-27 05:32N 54°20' W 011°04'0 0.0
2014-Aug-27 04:33N 54°20' W 011°04'0 0.0
2014-Aug-27 03:33N 54°20' W 011°04'0 0.0
2014-Aug-27 02:32N 54°20' W 011°04'0 0.0
2014-Aug-27 01:32N 54°20' W 011°04'0 0.0
2014-Aug-27 00:32N 54°20' W 011°04'0 0.0
2014-Aug-26 23:32N 54°20' W 011°04'0 0.0
2014-Aug-26 22:31N 54°20' W 011°04'0 0.0
2014-Aug-26 21:32N 54°20' W 011°04'0 0.0
2014-Aug-26 20:30N 54°20' W 011°04'0 0.0
2014-Aug-26 19:33N 54°20' W 011°04'0 0.0
2014-Aug-26 18:32N 54°20' W 011°04'0 0.0
2014-Aug-26 17:32N 54°20' W 011°03'0 0.0
2014-Aug-26 16:32N 54°20' W 011°03'0 0.0
2014-Aug-26 15:33N 54°20' W 011°03'0 0.1
2014-Aug-26 14:33N 54°20' W 011°04'0 0.1
2014-Aug-26 13:33N 54°20' W 011°03'0 0.0
2014-Aug-26 12:32N 54°20' W 011°04'0 0.0
2014-Aug-26 11:33N 54°20' W 011°04'0 0.0
2014-Aug-26 10:31N 54°20' W 011°04'0 0.0
2014-Aug-26 09:31N 54°20' W 011°04'0 0.0
2014-Aug-26 08:32N 54°20' W 011°04'0 0.0
2014-Aug-26 07:33N 54°20' W 011°04'0 0.0
2014-Aug-26 06:32N 54°20' W 011°04'0 0.0
2014-Aug-26 05:32N 54°20' W 011°04'0 0.0
2014-Aug-26 04:32N 54°20' W 011°03'0 0.0
2014-Aug-26 03:33N 54°20' W 011°04'0 0.0
2014-Aug-26 02:32N 54°20' W 011°04'0 0.0
2014-Aug-26 01:32N 54°20' W 011°04'0 0.0
2014-Aug-26 00:32N 54°20' W 011°04'0 0.0
2014-Aug-25 23:33N 54°20' W 011°04'0 0.0
2014-Aug-25 22:33N 54°20' W 011°04'0 0.0
2014-Aug-25 21:34N 54°20' W 011°04'0 0.0
2014-Aug-25 20:34N 54°20' W 011°04'0 0.0
2014-Aug-25 19:32N 54°20' W 011°04'0 0.0
2014-Aug-25 18:33N 54°20' W 011°04'0 0.0
2014-Aug-25 17:33N 54°20' W 011°04'0 0.0
2014-Aug-25 16:32N 54°20' W 011°04'0 0.0
2014-Aug-25 15:31N 54°20' W 011°03'0 0.0
2014-Aug-25 14:33N 54°20' W 011°03'0 0.0
2014-Aug-25 13:33N 54°20' W 011°03'0 0.0
2014-Aug-25 12:33N 54°20' W 011°03'0 0.0
2014-Aug-25 11:33N 54°20' W 011°03'0 0.0
2014-Aug-25 10:34N 54°20' W 011°03'0 0.0
2014-Aug-25 09:33N 54°20' W 011°04'0 0.0
2014-Aug-25 08:33N 54°20' W 011°04'0 0.0
2014-Aug-25 07:32N 54°20' W 011°04'0 0.0
2014-Aug-25 06:34N 54°20' W 011°04'0 0.0
2014-Aug-25 05:32N 54°20' W 011°04'0 0.0
2014-Aug-25 04:33N 54°20' W 011°04'0 0.0
2014-Aug-25 03:32N 54°20' W 011°04'0 0.0
2014-Aug-25 02:32N 54°20' W 011°04'0 0.0
2014-Aug-25 01:32N 54°20' W 011°04'0 0.0
2014-Aug-25 00:33N 54°20' W 011°04'0 0.0
2014-Aug-24 23:33N 54°20' W 011°04'0 0.0
2014-Aug-24 22:32N 54°20' W 011°04'0 0.0
2014-Aug-24 21:33N 54°20' W 011°04'0 0.0
2014-Aug-24 07:27N 54°20' W 011°04'0 0.0
2014-Aug-24 06:17N 54°20' W 011°04'0 0.0
2014-Aug-23 01:28N 54°20' W 011°04'0 0.0
2014-Aug-22 19:28N 54°20' W 011°04'0 0.0
2014-Aug-22 17:11N 54°20' W 011°04'  
Track history (hours):
 
Tides and Currents Weather Stations Pressure Air Temp Water Temp Dewpoint Dewpoint Depression Visibility Wind Speed Wind Dir Waves Ship Positions

Normand Subsea

Last reported at 2014-Sep-01 12:10 UTC. Time now 2014-Sep-03 07:09 UTC.
Position N 63°08' E 004°38'.

Length 113 m; draft 7.7 m.

Type: Other ship. MMSI: 235074949.

Date/timePositionNaut miles runAvg speedWind from/ knotsBaromVisibWave heightAir tempDewpointWater temp
2014-Sep-01 12:10N 63°08' E 004°38'911.4
2014-Sep-01 11:23N 63°02' E 004°24'33610.9
2014-Aug-31 04:33N 59°12' W 004°03'1010.4
2014-Aug-31 03:33N 59°04' W 004°17'1110.6
2014-Aug-31 02:33N 58°56' W 004°31'4911.4
2014-Aug-30 22:13N 58°19' W 005°33'811.7
2014-Aug-30 21:33N 58°12' W 005°41'1111.3
2014-Aug-30 20:33N 58°03' W 005°53'138 9.2
2014-Aug-30 05:33N 55°47' W 006°41'1212.1
2014-Aug-30 04:33N 55°37' W 006°29'1212.2
2014-Aug-30 03:33N 55°27' W 006°17'1111.0
2014-Aug-30 02:33N 55°22' W 006°00'1110.5
2014-Aug-30 01:33N 55°15' W 005°47'29 9.3
2014-Aug-29 22:23N 55°29' W 005°02'2010.9
2014-Aug-29 20:33N 55°49' W 004°57'1010.0
2014-Aug-29 19:33N 55°58' W 004°50'3 2.4
2014-Aug-29 18:31N 55°57' W 004°46'0 0.0
2014-Aug-29 17:31N 55°57' W 004°46'0 0.0
2014-Aug-29 16:31N 55°57' W 004°46'0 0.0
2014-Aug-29 15:31N 55°57' W 004°46'0 0.0
2014-Aug-29 14:31N 55°57' W 004°46'0 0.0
2014-Aug-29 13:31N 55°57' W 004°46'0 0.0
2014-Aug-29 12:31N 55°57' W 004°46'0 0.0
2014-Aug-29 11:31N 55°57' W 004°46'0 0.0
2014-Aug-29 10:31N 55°57' W 004°46'0 0.0
2014-Aug-29 09:31N 55°57' W 004°46'0 0.0
2014-Aug-29 08:31N 55°57' W 004°46'0 0.0
2014-Aug-29 07:31N 55°57' W 004°46'0 0.0
2014-Aug-29 06:31N 55°57' W 004°46'0 0.0
2014-Aug-29 05:31N 55°57' W 004°46'0 0.0
2014-Aug-29 04:31N 55°57' W 004°46'0 0.0
2014-Aug-29 03:31N 55°57' W 004°46'0 0.0
2014-Aug-29 02:31N 55°57' W 004°46'0 0.0
2014-Aug-29 01:31N 55°57' W 004°46'0 0.0
2014-Aug-29 00:31N 55°57' W 004°46'0 0.0
2014-Aug-28 23:31N 55°57' W 004°46'0 0.0
2014-Aug-28 22:31N 55°57' W 004°46'0 0.0
2014-Aug-28 21:31N 55°57' W 004°46'0 0.0
2014-Aug-28 20:31N 55°57' W 004°46'0 0.0
2014-Aug-28 19:31N 55°57' W 004°46'1 0.9
2014-Aug-28 18:34N 55°58' W 004°47'1010.2
2014-Aug-28 17:34N 55°49' W 004°57'1010.2
2014-Aug-28 16:34N 55°39' W 004°60'3410.3
2014-Aug-28 13:14N 55°15' W 005°42'811.4
2014-Aug-28 12:34N 55°14' W 005°56'1212.1
2014-Aug-28 11:33N 55°21' W 006°13'1313.1
2014-Aug-28 10:33N 55°24' W 006°36'1414.0
2014-Aug-28 09:33N 55°28' W 006°60'11312.6
2014-Aug-28 00:32N 54°42' W 010°01'2612.4
2014-Aug-27 22:25N 54°28' W 010°40'1011.7
2014-Aug-27 21:33N 54°23' W 010°55'6 5.8
2014-Aug-27 20:33N 54°20' W 011°03'0 0.0
2014-Aug-27 19:32N 54°20' W 011°04'0 0.0
2014-Aug-27 18:27N 54°20' W 011°04'0 0.0
2014-Aug-27 17:33N 54°20' W 011°04'0 0.0
2014-Aug-27 16:32N 54°20' W 011°04'0 0.0
2014-Aug-27 15:33N 54°20' W 011°04'0 0.1
2014-Aug-27 14:33N 54°20' W 011°03'0 0.1
2014-Aug-27 13:33N 54°20' W 011°04'0 0.0
2014-Aug-27 12:33N 54°20' W 011°03'0 0.0
2014-Aug-27 11:32N 54°20' W 011°04'0 0.0
2014-Aug-27 10:31N 54°20' W 011°04'0 0.0
2014-Aug-27 09:33N 54°20' W 011°04'0 0.0
2014-Aug-27 08:32N 54°20' W 011°04'0 0.0
2014-Aug-27 07:33N 54°20' W 011°04'0 0.0
2014-Aug-27 06:32N 54°20' W 011°04'0 0.0
2014-Aug-27 05:32N 54°20' W 011°04'0 0.0
2014-Aug-27 04:33N 54°20' W 011°04'0 0.0
2014-Aug-27 03:33N 54°20' W 011°04'0 0.0
2014-Aug-27 02:32N 54°20' W 011°04'0 0.0
2014-Aug-27 01:32N 54°20' W 011°04'0 0.0
2014-Aug-27 00:32N 54°20' W 011°04'0 0.0
2014-Aug-26 23:32N 54°20' W 011°04'0 0.0
2014-Aug-26 22:31N 54°20' W 011°04'0 0.0
2014-Aug-26 21:32N 54°20' W 011°04'0 0.0
2014-Aug-26 20:30N 54°20' W 011°04'0 0.0
2014-Aug-26 19:33N 54°20' W 011°04'0 0.0
2014-Aug-26 18:32N 54°20' W 011°04'0 0.0
2014-Aug-26 17:32N 54°20' W 011°03'0 0.0
2014-Aug-26 16:32N 54°20' W 011°03'0 0.0
2014-Aug-26 15:33N 54°20' W 011°03'0 0.1
2014-Aug-26 14:33N 54°20' W 011°04'0 0.1
2014-Aug-26 13:33N 54°20' W 011°03'0 0.0
2014-Aug-26 12:32N 54°20' W 011°04'0 0.0
2014-Aug-26 11:33N 54°20' W 011°04'0 0.0
2014-Aug-26 10:31N 54°20' W 011°04'0 0.0
2014-Aug-26 09:31N 54°20' W 011°04'0 0.0
2014-Aug-26 08:32N 54°20' W 011°04'0 0.0
2014-Aug-26 07:33N 54°20' W 011°04'0 0.0
2014-Aug-26 06:32N 54°20' W 011°04'0 0.0
2014-Aug-26 05:32N 54°20' W 011°04'0 0.0
2014-Aug-26 04:32N 54°20' W 011°03'0 0.0
2014-Aug-26 03:33N 54°20' W 011°04'0 0.0
2014-Aug-26 02:32N 54°20' W 011°04'0 0.0
2014-Aug-26 01:32N 54°20' W 011°04'0 0.0
2014-Aug-26 00:32N 54°20' W 011°04'0 0.0
2014-Aug-25 23:33N 54°20' W 011°04'0 0.0
2014-Aug-25 22:33N 54°20' W 011°04'0 0.0
2014-Aug-25 21:34N 54°20' W 011°04'0 0.0
2014-Aug-25 20:34N 54°20' W 011°04'0 0.0
2014-Aug-25 19:32N 54°20' W 011°04'0 0.0
2014-Aug-25 18:33N 54°20' W 011°04'0 0.0
2014-Aug-25 17:33N 54°20' W 011°04'0 0.0
2014-Aug-25 16:32N 54°20' W 011°04'0 0.0
2014-Aug-25 15:31N 54°20' W 011°03'0 0.0
2014-Aug-25 14:33N 54°20' W 011°03'0 0.0
2014-Aug-25 13:33N 54°20' W 011°03'0 0.0
2014-Aug-25 12:33N 54°20' W 011°03'0 0.0
2014-Aug-25 11:33N 54°20' W 011°03'0 0.0
2014-Aug-25 10:34N 54°20' W 011°03'0 0.0
2014-Aug-25 09:33N 54°20' W 011°04'0 0.0
2014-Aug-25 08:33N 54°20' W 011°04'0 0.0
2014-Aug-25 07:32N 54°20' W 011°04'0 0.0
2014-Aug-25 06:34N 54°20' W 011°04'0 0.0
2014-Aug-25 05:32N 54°20' W 011°04'0 0.0
2014-Aug-25 04:33N 54°20' W 011°04'0 0.0
2014-Aug-25 03:32N 54°20' W 011°04'0 0.0
2014-Aug-25 02:32N 54°20' W 011°04'0 0.0
2014-Aug-25 01:32N 54°20' W 011°04'0 0.0
2014-Aug-25 00:33N 54°20' W 011°04'0 0.0
2014-Aug-24 23:33N 54°20' W 011°04'0 0.0
2014-Aug-24 22:32N 54°20' W 011°04'0 0.0
2014-Aug-24 21:33N 54°20' W 011°04'0 0.0
2014-Aug-24 07:27N 54°20' W 011°04'0 0.0
2014-Aug-24 06:17N 54°20' W 011°04'0 0.0
2014-Aug-23 01:28N 54°20' W 011°04'0 0.0
2014-Aug-22 19:28N 54°20' W 011°04'0 0.0
2014-Aug-22 17:11N 54°20' W 011°04'  

Dump ship's entire track history